Time;durP1;ratioP1;P1;durP2;ratioP2;P2;SDS_P1;SDS_P2;PMS_P1;PMS_P2;Temp;Humidity;BMP_temperature;BMP_pressure;BME280_temperature;BME280_humidity;BME280_pressure;Samples;Min_cycle;Max_cycle;Signal;HPM_P1;HPM_P2
2023/07/14 00:00:15;;;;;;;3.17;2.88;;;15.50;1.00;;;;;;6247289;23;20179;-95
2023/07/14 00:02:45;;;;;;;3.38;2.88;;;15.50;1.00;;;;;;6246804;23;20163;-95
2023/07/14 00:05:20;;;;;;;4.13;2.83;;;15.50;1.00;;;;;;6246707;23;20223;-96
2023/07/14 00:07:48;;;;;;;3.47;3.17;;;15.40;1.00;;;;;;6246940;23;20149;-94
2023/07/14 00:10:18;;;;;;;3.50;3.05;;;15.40;1.00;;;;;;6246994;23;20248;-95
2023/07/14 00:12:47;;;;;;;3.33;2.95;;;15.40;1.00;;;;;;6246796;23;20645;-95
2023/07/14 00:15:15;;;;;;;4.18;3.10;;;15.30;1.00;;;;;;6246754;23;20628;-95
2023/07/14 00:17:42;;;;;;;4.83;3.20;;;15.30;1.00;;;;;;6246561;23;20274;-94
2023/07/14 00:20:26;;;;;;;4.15;3.08;;;15.30;1.00;;;;;;6246837;23;20243;-94
2023/07/14 00:22:53;;;;;;;5.85;3.10;;;15.20;1.00;;;;;;6246987;23;20213;-94
2023/07/14 00:25:23;;;;;;;5.33;2.83;;;15.20;1.00;;;;;;6248884;23;20170;-96
2023/07/14 00:27:53;;;;;;;4.15;3.10;;;15.20;80.70;;;;;;6249163;23;20177;-95
2023/07/14 00:30:22;;;;;;;6.40;3.10;;;15.10;99.90;;;;;;6248640;23;20173;-95
2023/07/14 00:32:51;;;;;;;4.10;3.00;;;15.10;91.60;;;;;;6248517;23;20171;-94
2023/07/14 00:35:25;;;;;;;4.80;3.55;;;15.10;13.70;;;;;;6248807;23;20173;-96
2023/07/14 00:37:54;;;;;;;4.93;3.50;;;15.00;13.90;;;;;;6248654;23;20157;-96
2023/07/14 00:40:25;;;;;;;4.55;3.15;;;15.00;28.70;;;;;;6248704;23;20167;-96
2023/07/14 00:42:57;;;;;;;3.73;3.00;;;14.90;95.20;;;;;;6248722;23;20161;-95
2023/07/14 00:45:26;;;;;;;3.93;2.90;;;14.90;99.90;;;;;;6248822;23;20227;-96
2023/07/14 00:47:57;;;;;;;6.73;3.23;;;14.90;99.90;;;;;;6247935;23;20175;-96
2023/07/14 00:50:38;;;;;;;5.30;3.10;;;14.80;99.90;;;;;;6248856;23;20161;-96
2023/07/14 00:53:16;;;;;;;4.73;3.13;;;14.80;99.90;;;;;;6248983;23;20158;-95
2023/07/14 00:55:47;;;;;;;5.27;3.20;;;14.70;99.90;;;;;;6248760;23;20582;-94
2023/07/14 00:58:19;;;;;;;3.63;3.10;;;14.70;99.90;;;;;;6248114;23;20159;-96
2023/07/14 01:01:03;;;;;;;3.67;2.80;;;14.70;99.90;;;;;;6248193;23;20162;-95
2023/07/14 01:03:31;;;;;;;3.40;3.10;;;14.60;99.90;;;;;;6248185;23;20228;-95
2023/07/14 01:06:02;;;;;;;3.30;3.00;;;14.60;99.90;;;;;;6248610;23;20165;-95
2023/07/14 01:08:29;;;;;;;4.77;3.10;;;14.60;99.90;;;;;;6248204;23;20232;-95
2023/07/14 01:10:57;;;;;;;3.73;3.27;;;14.60;99.90;;;;;;6248018;23;20194;-95
2023/07/14 01:13:27;;;;;;;5.57;3.37;;;14.50;1.00;;;;;;6248023;23;20227;-95
2023/07/14 01:15:54;;;;;;;4.87;3.60;;;14.50;1.00;;;;;;6247900;23;20195;-95
2023/07/14 01:18:22;;;;;;;3.50;3.20;;;14.50;1.00;;;;;;6248306;23;20636;-95
2023/07/14 01:20:49;;;;;;;5.57;3.93;;;14.50;1.00;;;;;;6248259;23;20251;-95
2023/07/14 01:23:30;;;;;;;4.47;3.27;;;14.40;1.00;;;;;;6247893;23;20167;-95
2023/07/14 01:26:13;;;;;;;3.97;3.30;;;14.40;1.00;;;;;;6248643;23;20187;-95
2023/07/14 01:28:41;;;;;;;4.17;3.30;;;14.40;1.00;;;;;;6248416;23;20469;-95
2023/07/14 01:31:21;;;;;;;7.20;3.70;;;14.40;1.00;;;;;;6248211;23;20226;-95
2023/07/14 01:33:52;;;;;;;5.57;3.60;;;14.40;1.00;;;;;;6248441;23;20210;-94
2023/07/14 01:36:21;;;;;;;4.07;3.33;;;14.40;1.00;;;;;;6247503;23;20188;-95
2023/07/14 01:38:48;;;;;;;4.10;3.33;;;14.40;1.00;;;;;;6247604;23;20178;-95
2023/07/14 01:41:15;;;;;;;3.97;3.30;;;14.30;1.00;;;;;;6247872;23;20171;-95
2023/07/14 01:43:45;;;;;;;10.07;3.50;;;14.30;1.00;;;;;;6248151;23;20202;-96
2023/07/14 01:46:17;;;;;;;5.00;3.50;;;14.30;1.00;;;;;;6247689;23;20168;-96
2023/07/14 01:49:03;;;;;;;5.40;3.77;;;14.30;1.00;;;;;;6247784;23;20673;-95
2023/07/14 01:51:35;;;;;;;5.03;3.10;;;14.30;1.00;;;;;;6248011;23;20164;-94
2023/07/14 01:54:06;;;;;;;4.73;3.23;;;14.20;1.00;;;;;;6248557;23;20183;-95
2023/07/14 01:56:35;;;;;;;4.87;3.43;;;14.20;1.00;;;;;;6247856;23;20477;-94
2023/07/14 01:59:08;;;;;;;4.03;3.60;;;14.20;20.20;;;;;;6247470;23;20174;-96
2023/07/14 02:01:37;;;;;;;4.77;3.57;;;14.20;81.80;;;;;;6236523;23;20166;-95
2023/07/14 02:04:07;;;;;;;4.07;3.50;;;14.10;1.00;;;;;;6247993;23;20229;-94
2023/07/14 02:06:34;;;;;;;4.40;3.50;;;14.10;1.00;;;;;;6248018;23;20171;-94
2023/07/14 02:09:01;;;;;;;6.73;3.43;;;14.10;10.10;;;;;;6247657;23;20183;-96
2023/07/14 02:11:29;;;;;;;5.50;3.30;;;14.10;1.00;;;;;;6247769;23;20201;-96
2023/07/14 02:13:58;;;;;;;3.83;3.30;;;14.10;11.70;;;;;;6247693;23;20175;-95
2023/07/14 02:16:27;;;;;;;4.77;3.40;;;14.00;1.00;;;;;;6247433;23;20241;-95
2023/07/14 02:18:55;;;;;;;5.03;3.50;;;14.00;1.00;;;;;;6247490;23;20258;-95
2023/07/14 02:21:28;;;;;;;6.63;3.60;;;14.00;13.90;;;;;;6247555;23;20226;-95
2023/07/14 02:23:55;;;;;;;3.80;3.17;;;13.90;1.00;;;;;;6247755;23;20171;-93
2023/07/14 02:26:29;;;;;;;3.80;3.20;;;13.90;1.00;;;;;;6247928;23;20172;-95
2023/07/14 02:28:57;;;;;;;4.37;3.30;;;13.90;3.70;;;;;;6247558;23;20240;-95
2023/07/14 02:31:32;;;;;;;5.23;3.20;;;13.90;1.00;;;;;;6247348;23;20193;-94
2023/07/14 02:33:59;;;;;;;5.60;3.87;;;13.80;69.70;;;;;;6247776;23;20157;-95
2023/07/14 02:36:42;;;;;;;5.13;3.60;;;13.80;22.50;;;;;;6247558;23;20185;-95
2023/07/14 02:39:09;;;;;;;4.27;3.87;;;13.80;99.90;;;;;;6247383;23;20166;-94
2023/07/14 02:41:40;;;;;;;4.43;3.70;;;13.80;99.90;;;;;;6247552;23;20571;-94
2023/07/14 02:44:12;;;;;;;4.53;3.67;;;13.70;99.90;;;;;;6247472;23;20233;-94
2023/07/14 02:46:46;;;;;;;7.13;4.10;;;13.70;99.90;;;;;;6247101;23;20157;-94
2023/07/14 02:49:13;;;;;;;3.67;3.33;;;13.70;99.90;;;;;;6247601;23;20158;-94
2023/07/14 02:51:40;;;;;;;4.30;3.77;;;13.70;99.90;;;;;;6247427;23;20228;-96
2023/07/14 02:54:08;;;;;;;4.53;3.60;;;13.70;99.90;;;;;;6247203;23;20173;-95
2023/07/14 02:56:36;;;;;;;4.60;3.90;;;13.70;99.90;;;;;;6247018;23;20197;-94
2023/07/14 02:59:03;;;;;;;4.73;3.93;;;13.70;99.90;;;;;;6247264;23;20173;-94
2023/07/14 03:01:32;;;;;;;6.43;3.83;;;13.80;99.90;;;;;;6235150;23;20218;-94
2023/07/14 03:04:01;;;;;;;5.77;3.70;;;13.70;99.90;;;;;;6247410;23;20254;-95
2023/07/14 03:06:28;;;;;;;5.63;3.83;;;13.80;1.00;;;;;;6247031;23;20252;-94
2023/07/14 03:08:55;;;;;;;4.90;3.57;;;13.80;1.00;;;;;;6246910;23;20175;-94
2023/07/14 03:11:22;;;;;;;5.97;3.90;;;13.80;1.00;;;;;;6247045;23;20225;-95
2023/07/14 03:13:49;;;;;;;4.23;3.57;;;13.90;1.00;;;;;;6247226;23;20176;-94
2023/07/14 03:16:16;;;;;;;4.03;3.60;;;13.90;1.00;;;;;;6247134;23;20621;-96
2023/07/14 03:18:43;;;;;;;4.33;3.90;;;13.90;1.00;;;;;;6247515;23;20174;-95
2023/07/14 03:21:12;;;;;;;4.70;4.13;;;13.90;1.00;;;;;;6246926;23;20178;-94
2023/07/14 03:23:39;;;;;;;4.83;3.73;;;14.00;1.00;;;;;;6247043;23;20176;-94
2023/07/14 03:26:08;;;;;;;4.87;4.00;;;14.00;99.90;;;;;;6246724;23;20198;-92
2023/07/14 03:28:36;;;;;;;4.37;3.97;;;14.00;99.90;;;;;;6247309;23;20525;-93
2023/07/14 03:31:04;;;;;;;4.23;3.83;;;14.00;99.90;;;;;;6247347;23;20226;-94
2023/07/14 03:33:33;;;;;;;5.60;3.97;;;14.10;99.90;;;;;;6235243;23;20177;-94
2023/07/14 03:36:02;;;;;;;5.27;3.93;;;14.10;99.90;;;;;;6247243;23;20169;-94
2023/07/14 03:38:30;;;;;;;7.80;4.27;;;14.10;99.90;;;;;;6246841;23;20247;-94
2023/07/14 03:40:57;;;;;;;4.20;3.80;;;14.10;99.90;;;;;;6246585;23;20423;-94
2023/07/14 03:43:24;;;;;;;6.47;4.27;;;14.20;99.90;;;;;;6247649;23;20254;-94
2023/07/14 03:45:51;;;;;;;4.43;3.87;;;14.20;99.90;;;;;;6246642;23;20181;-94
2023/07/14 03:48:18;;;;;;;4.10;3.70;;;14.30;99.90;;;;;;6246844;23;20172;-95
2023/07/14 03:50:45;;;;;;;5.80;4.30;;;14.40;99.90;;;;;;6246721;23;20175;-93
2023/07/14 03:53:12;;;;;;;8.23;4.17;;;14.50;99.90;;;;;;6246805;23;20622;-92
2023/07/14 03:55:40;;;;;;;4.63;4.00;;;14.50;99.90;;;;;;6246896;23;20175;-94
2023/07/14 03:58:07;;;;;;;4.87;4.03;;;14.60;99.90;;;;;;6247552;23;20722;-94
2023/07/14 04:00:34;;;;;;;6.50;4.17;;;14.70;99.90;;;;;;6248358;23;20179;-93
2023/07/14 04:03:01;;;;;;;3.90;3.40;;;14.80;99.90;;;;;;6249170;23;20178;-94
2023/07/14 04:05:28;;;;;;;4.10;3.70;;;15.40;1.00;;;;;;6248973;23;20174;-95
2023/07/14 04:07:55;;;;;;;3.83;3.50;;;16.20;1.00;;;;;;6249224;23;20171;-94
2023/07/14 04:10:23;;;;;;;4.82;3.53;;;17.10;1.00;;;;;;6248636;23;20198;-96
2023/07/14 04:12:51;;;;;;;4.55;3.00;;;17.90;1.00;;;;;;6248526;23;20210;-95
2023/07/14 04:15:21;;;;;;;4.47;3.08;;;18.50;1.00;;;;;;6248975;23;20230;-95
2023/07/14 04:17:48;;;;;;;4.63;3.33;;;19.10;99.90;;;;;;6248572;23;20259;-94
2023/07/14 04:20:15;;;;;;;4.35;2.90;;;19.50;1.00;;;;;;6248789;23;20172;-94
2023/07/14 04:22:43;;;;;;;3.42;2.80;;;20.00;99.90;;;;;;6248581;23;20176;-95
2023/07/14 04:25:10;;;;;;;4.05;3.10;;;20.40;1.00;;;;;;6248570;23;20172;-95
2023/07/14 04:27:37;;;;;;;4.18;2.70;;;20.80;1.00;;;;;;6248694;23;20169;-95
2023/07/14 04:30:08;;;;;;;5.90;3.00;;;21.10;99.90;;;;;;6248676;23;20198;-94
2023/07/14 04:32:35;;;;;;;4.47;2.70;;;21.40;99.90;;;;;;6248932;23;20156;-95
2023/07/14 04:35:04;;;;;;;4.78;2.85;;;21.70;99.90;;;;;;6248685;23;20176;-93
2023/07/14 04:37:31;;;;;;;3.17;2.83;;;21.90;38.30;;;;;;6248638;23;20203;-95
2023/07/14 04:39:58;;;;;;;3.58;2.90;;;22.10;1.00;;;;;;6248265;23;20222;-93
2023/07/14 04:42:25;;;;;;;3.15;2.70;;;22.10;1.00;;;;;;6248596;23;20199;-94
2023/07/14 04:44:52;;;;;;;3.78;2.83;;;22.20;1.00;;;;;;6248665;23;20176;-94
2023/07/14 04:47:21;;;;;;;5.63;2.85;;;22.50;1.00;;;;;;6248542;23;20503;-94
2023/07/14 04:49:47;;;;;;;3.92;2.92;;;22.70;1.00;;;;;;6248686;23;20178;-95
2023/07/14 04:52:14;;;;;;;9.20;3.17;;;23.10;1.00;;;;;;6248346;23;20172;-93
2023/07/14 04:54:41;;;;;;;9.50;3.75;;;23.30;1.00;;;;;;6248234;23;20172;-94
2023/07/14 04:57:08;;;;;;;5.55;3.00;;;23.50;1.00;;;;;;6248422;23;20234;-93
2023/07/14 04:59:35;;;;;;;3.45;2.90;;;23.60;1.00;;;;;;6247939;23;20623;-94
2023/07/14 05:02:05;;;;;;;3.92;3.10;;;23.70;1.00;;;;;;6248382;23;20221;-95
2023/07/14 05:04:33;;;;;;;3.90;3.20;;;23.60;1.00;;;;;;6248410;23;20223;-94
2023/07/14 05:07:00;;;;;;;3.42;3.00;;;23.20;1.00;;;;;;6248377;23;20226;-93
2023/07/14 05:09:28;;;;;;;4.20;3.25;;;22.80;1.00;;;;;;6247766;23;20172;-92
2023/07/14 05:11:55;;;;;;;4.95;3.40;;;22.30;1.00;;;;;;6248421;23;20666;-92
2023/07/14 05:14:22;;;;;;;4.30;3.63;;;21.90;1.00;;;;;;6247886;23;20279;-92
2023/07/14 05:16:48;;;;;;;10.18;4.78;;;21.60;1.00;;;;;;6247899;23;20168;-92
2023/07/14 05:19:15;;;;;;;3.97;3.58;;;21.30;1.00;;;;;;6248325;23;20226;-92
2023/07/14 05:21:44;;;;;;;4.35;3.58;;;21.00;1.00;;;;;;6248374;23;20172;-94
2023/07/14 05:24:11;;;;;;;6.00;4.07;;;20.80;1.00;;;;;;6248332;23;20173;-95
2023/07/14 05:26:38;;;;;;;4.88;3.85;;;20.60;1.00;;;;;;6248178;23;20697;-94
2023/07/14 05:29:06;;;;;;;4.32;3.45;;;20.50;1.00;;;;;;6248455;23;20171;-94
2023/07/14 05:31:33;;;;;;;5.72;4.43;;;20.40;1.00;;;;;;6247952;23;20176;-93
2023/07/14 05:34:00;;;;;;;44.28;22.58;;;20.40;60.90;;;;;;6248091;23;20219;-94
2023/07/14 05:36:27;;;;;;;7.40;4.72;;;20.30;68.60;;;;;;6247850;23;20694;-94
2023/07/14 05:38:55;;;;;;;9.23;3.97;;;20.20;99.90;;;;;;6248035;23;20188;-95
2023/07/14 05:41:22;;;;;;;17.10;9.38;;;20.20;99.90;;;;;;6247915;23;20653;-93
2023/07/14 05:43:49;;;;;;;5.18;3.55;;;20.20;99.90;;;;;;6248514;23;20172;-93
2023/07/14 05:46:16;;;;;;;6.70;4.05;;;20.20;99.90;;;;;;6248396;23;20176;-95
2023/07/14 05:48:43;;;;;;;14.57;9.13;;;20.20;99.90;;;;;;6248290;23;20172;-94
2023/07/14 05:51:10;;;;;;;5.07;3.30;;;20.20;99.90;;;;;;6247694;23;20230;-95
2023/07/14 05:53:38;;;;;;;8.43;4.93;;;20.20;99.90;;;;;;6247976;23;20185;-95
2023/07/14 05:56:06;;;;;;;5.78;4.13;;;20.30;99.90;;;;;;6248214;23;20548;-95
2023/07/14 05:58:33;;;;;;;5.05;4.25;;;20.30;99.90;;;;;;6247725;23;20184;-95
2023/07/14 06:01:00;;;;;;;3.78;3.00;;;20.30;99.90;;;;;;6248108;23;20562;-94
2023/07/14 06:03:27;;;;;;;33.65;21.95;;;20.30;99.90;;;;;;6247904;23;20168;-95
2023/07/14 06:05:56;;;;;;;26.48;17.33;;;20.40;99.90;;;;;;6247555;23;20277;-94
2023/07/14 06:08:23;;;;;;;7.65;5.28;;;20.40;99.90;;;;;;6247612;23;20696;-95
2023/07/14 06:10:51;;;;;;;7.45;5.10;;;20.30;99.90;;;;;;6247613;23;20188;-95
2023/07/14 06:13:19;;;;;;;19.98;14.13;;;20.30;99.90;;;;;;6247654;23;20218;-94
2023/07/14 06:15:48;;;;;;;19.77;13.23;;;20.40;99.90;;;;;;6247993;23;20171;-95
2023/07/14 06:18:15;;;;;;;24.95;17.25;;;20.40;99.90;;;;;;6247664;23;20198;-94
2023/07/14 06:20:42;;;;;;;7.20;5.50;;;20.30;99.90;;;;;;6247421;23;20172;-95
2023/07/14 06:23:09;;;;;;;7.15;4.15;;;20.30;99.90;;;;;;6247590;23;20223;-94
2023/07/14 06:25:36;;;;;;;11.38;9.07;;;20.40;99.90;;;;;;6247803;23;20481;-95
2023/07/14 06:28:02;;;;;;;3.47;3.03;;;20.40;99.90;;;;;;6247935;23;20250;-95
2023/07/14 06:30:31;;;;;;;7.25;4.05;;;20.60;99.90;;;;;;6247798;23;20169;-95
2023/07/14 06:32:58;;;;;;;10.77;5.32;;;20.70;87.80;;;;;;6247664;23;20207;-95
2023/07/14 06:35:25;;;;;;;8.88;4.57;;;20.80;1.00;;;;;;6247433;23;20180;-95
2023/07/14 06:37:52;;;;;;;9.32;4.10;;;20.80;1.00;;;;;;6247650;23;20188;-94
2023/07/14 06:40:20;;;;;;;6.88;3.15;;;20.90;1.00;;;;;;6247670;23;20172;-95
2023/07/14 06:42:47;;;;;;;12.40;5.38;;;21.00;1.00;;;;;;6247295;23;20172;-95
2023/07/14 06:45:14;;;;;;;11.98;5.88;;;21.10;1.00;;;;;;6247640;23;20172;-95
2023/07/14 06:47:43;;;;;;;16.10;7.13;;;21.10;1.00;;;;;;6247347;23;20482;-94
2023/07/14 06:50:10;;;;;;;14.05;7.47;;;21.20;1.00;;;;;;6247083;23;20172;-95
2023/07/14 06:52:38;;;;;;;5.07;2.78;;;21.30;1.00;;;;;;6247547;23;20165;-94
2023/07/14 06:55:06;;;;;;;10.15;5.07;;;21.30;1.00;;;;;;6247612;23;20168;-94
2023/07/14 06:57:33;;;;;;;7.32;3.28;;;21.30;1.00;;;;;;6247247;23;20183;-95
2023/07/14 07:00:00;;;;;;;3.92;2.50;;;21.40;1.00;;;;;;6247614;23;20172;-94
2023/07/14 07:02:28;;;;;;;4.88;3.15;;;21.50;1.00;;;;;;6247430;23;20176;-94
2023/07/14 07:04:56;;;;;;;7.60;4.18;;;21.70;1.00;;;;;;6246847;23;20701;-95
2023/07/14 07:07:24;;;;;;;4.70;2.50;;;21.70;1.00;;;;;;6247537;23;20508;-94
2023/07/14 07:09:55;;;;;;;4.55;2.35;;;21.70;1.00;;;;;;6247400;23;20226;-95
2023/07/14 07:12:22;;;;;;;2.45;1.80;;;21.70;1.00;;;;;;6247270;23;20152;-95
2023/07/14 07:14:49;;;;;;;3.78;2.22;;;21.90;1.00;;;;;;6247524;23;20726;-95
2023/07/14 07:17:16;;;;;;;2.35;1.85;;;22.00;1.00;;;;;;6247285;23;20223;-96
2023/07/14 07:19:43;;;;;;;4.60;2.80;;;22.10;1.00;;;;;;6247186;23;20395;-95
2023/07/14 07:22:12;;;;;;;2.65;1.77;;;22.20;1.00;;;;;;6247434;23;20227;-95
2023/07/14 07:24:39;;;;;;;3.65;1.65;;;22.30;1.00;;;;;;6248315;23;20172;-95
2023/07/14 07:27:08;;;;;;;4.22;1.67;;;22.40;99.90;;;;;;6270628;23;20182;-96
2023/07/14 07:29:35;;;;;;;3.40;2.50;;;22.60;99.90;;;;;;6267628;23;20587;-96
2023/07/14 07:32:07;;;;;;;5.72;2.88;;;22.70;99.90;;;;;;6269791;23;20168;-96
2023/07/14 07:34:34;;;;;;;3.65;2.42;;;22.70;99.90;;;;;;6271277;23;20160;-95
2023/07/14 07:37:05;;;;;;;5.05;3.50;;;22.60;99.90;;;;;;6271193;23;20195;-96
2023/07/14 07:39:35;;;;;;;2.70;2.17;;;22.60;99.90;;;;;;6273349;22;20263;-96
2023/07/14 07:42:03;;;;;;;2.22;1.63;;;22.70;99.90;;;;;;6271894;23;20156;-96
2023/07/14 07:44:31;;;;;;;3.55;1.90;;;22.70;99.90;;;;;;6270359;23;20194;-96
2023/07/14 07:47:02;;;;;;;2.85;1.77;;;22.80;99.90;;;;;;6270841;23;20221;-96
2023/07/14 07:49:29;;;;;;;5.72;3.42;;;22.90;99.90;;;;;;6271293;22;20253;-96
2023/07/14 07:51:57;;;;;;;6.18;2.20;;;23.00;99.90;;;;;;6271887;23;20168;-96
2023/07/14 07:54:24;;;;;;;4.10;1.80;;;23.10;99.90;;;;;;6272088;23;20150;-95
2023/07/14 07:56:53;;;;;;;4.55;1.85;;;23.30;99.90;;;;;;6272917;23;20254;-96
2023/07/14 07:59:23;;;;;;;2.72;2.05;;;23.40;99.90;;;;;;6273184;22;20240;-96
2023/07/14 08:01:50;;;;;;;4.35;1.88;;;23.50;99.90;;;;;;6273807;22;20148;-96
2023/07/14 08:04:18;;;;;;;3.55;1.52;;;23.50;99.90;;;;;;6273492;23;20164;-96
2023/07/14 08:06:47;;;;;;;3.38;2.40;;;23.40;99.90;;;;;;6272327;23;20174;-96
2023/07/14 08:09:15;;;;;;;4.00;1.75;;;23.40;99.90;;;;;;6271309;22;20266;-96
2023/07/14 08:11:44;;;;;;;3.58;1.50;;;23.50;99.90;;;;;;6274445;22;20159;-95
2023/07/14 08:16:49;;;;;;;3.95;1.83;;;23.80;99.90;;;;;;6267141;22;20202;-96
2023/07/14 08:19:20;;;;;;;4.68;2.63;;;23.80;99.90;;;;;;6274632;22;20176;-96
2023/07/14 08:21:50;;;;;;;4.60;1.90;;;23.80;99.90;;;;;;6272278;23;20165;-96
2023/07/14 08:24:19;;;;;;;3.03;1.77;;;23.80;99.90;;;;;;6273008;23;20220;-95
2023/07/14 08:29:27;;;;;;;11.18;5.18;;;24.10;99.90;;;;;;6273981;22;20760;-96
2023/07/14 08:31:56;;;;;;;6.85;3.22;;;24.10;99.90;;;;;;6270416;22;20226;-96
2023/07/14 08:34:27;;;;;;;2.38;1.30;;;24.00;99.90;;;;;;6273291;22;20172;-96
2023/07/14 08:36:54;;;;;;;2.20;1.40;;;24.00;99.90;;;;;;6273414;23;20161;-96
2023/07/14 08:39:23;;;;;;;4.53;2.40;;;24.40;99.90;;;;;;6273609;22;20180;-96
2023/07/14 08:41:56;;;;;;;2.13;1.50;;;24.80;99.90;;;;;;6272486;23;20173;-96
2023/07/14 08:44:46;;;;;;;9.68;3.97;;;25.00;99.90;;;;;;6273168;22;20137;-96
2023/07/14 08:47:21;;;;;;;8.18;3.80;;;24.80;99.90;;;;;;6273510;22;20229;-96
2023/07/14 08:52:22;;;;;;;3.50;1.40;;;24.50;99.90;;;;;;6274807;23;20220;-96
2023/07/14 08:54:56;;;;;;;4.85;1.67;;;24.60;99.90;;;;;;6254262;22;20198;-95
2023/07/14 08:57:25;;;;;;;5.07;1.70;;;25.00;99.90;;;;;;6269667;22;20204;-95
2023/07/14 09:02:35;;;;;;;1.55;1.38;;;25.40;99.90;;;;;;6249151;22;20196;-96
2023/07/14 09:05:06;;;;;;;10.15;2.58;;;25.70;99.90;;;;;;6274468;22;20156;-96
2023/07/14 09:07:35;;;;;;;2.60;1.30;;;26.00;99.90;;;;;;6274161;22;20158;-96
2023/07/14 09:12:39;;;;;;;2.95;1.40;;;25.90;99.90;;;;;;6272904;22;20207;-95
2023/07/14 09:15:10;;;;;;;4.15;1.70;;;26.00;99.90;;;;;;6274159;22;20140;-95
2023/07/14 09:18:07;;;;;;;2.38;1.25;;;26.30;99.90;;;;;;6271542;22;20264;-96
2023/07/14 09:20:48;;;;;;;2.83;1.58;;;26.70;99.90;;;;;;6271607;23;20549;-96
2023/07/14 09:23:38;;;;;;;2.75;1.88;;;27.10;99.90;;;;;;6272107;22;20221;-96
2023/07/14 09:26:28;;;;;;;3.28;1.70;;;27.40;99.90;;;;;;6270728;22;20187;-96
2023/07/14 09:28:58;;;;;;;4.22;2.95;;;27.40;99.90;;;;;;6272957;22;20168;-96
2023/07/14 09:31:39;;;;;;;2.55;1.60;;;27.20;99.90;;;;;;6272974;23;20144;-96
2023/07/14 09:34:16;;;;;;;6.80;3.42;;;26.90;99.90;;;;;;6272896;23;20168;-96
2023/07/14 09:36:55;;;;;;;3.83;1.63;;;26.60;99.90;;;;;;6273799;23;20175;-96
2023/07/14 09:39:27;;;;;;;2.85;2.35;;;26.50;99.90;;;;;;6263721;22;20646;-94
2023/07/14 10:00:19;;;;;;;2.70;1.60;;;26.80;99.90;;;;;;6242726;22;20199;-95
2023/07/14 10:02:51;;;;;;;2.28;1.63;;;26.90;99.90;;;;;;6272443;22;20218;-96
2023/07/14 10:07:47;;;;;;;2.50;1.73;;;26.90;99.90;;;;;;6274372;22;20156;-96
2023/07/14 10:10:26;;;;;;;5.00;1.70;;;26.70;99.90;;;;;;6245527;22;20184;-96
2023/07/14 10:12:56;;;;;;;2.20;1.40;;;26.60;99.90;;;;;;6239624;22;20201;-96
2023/07/14 10:31:03;;;;;;;2.25;1.60;;;26.80;99.90;;;;;;6194454;22;1173791;31
2023/07/14 10:33:40;;;;;;;1.90;1.45;;;26.60;99.90;;;;;;6251777;22;20296;-96
2023/07/14 10:41:55;;;;;;;2.38;1.65;;;25.80;99.90;;;;;;6217689;22;20242;-95
2023/07/14 14:09:29;;;;;;;2.15;1.73;;;30.00;99.90;;;;;;6236758;22;20194;-96
2023/07/14 14:27:34;;;;;;;3.45;1.90;;;29.40;99.90;;;;;;6228827;22;20195;-96
2023/07/14 15:14:08;;;;;;;4.80;3.83;;;28.40;99.90;;;;;;6220690;22;20379;-95
2023/07/14 15:16:38;;;;;;;4.03;2.72;;;28.60;99.90;;;;;;6250420;22;20206;-96
2023/07/14 15:19:07;;;;;;;2.47;2.13;;;28.90;99.90;;;;;;6266860;22;20227;-96
2023/07/14 18:54:56;;;;;;;10.00;2.70;;;22.30;99.90;;;;;;6227493;22;20278;-95
2023/07/14 19:31:20;;;;;;;5.80;2.78;;;20.40;99.90;;;;;;6223368;22;20151;-95
2023/07/14 19:36:22;;;;;;;3.70;2.50;;;20.20;99.90;;;;;;6240874;22;20210;-96
2023/07/14 19:38:49;;;;;;;4.50;2.42;;;20.10;99.90;;;;;;6264094;22;20156;-96
2023/07/14 19:41:18;;;;;;;2.90;2.55;;;20.00;99.90;;;;;;6257480;23;20198;-96
2023/07/14 19:43:46;;;;;;;4.20;2.65;;;19.90;99.90;;;;;;6252231;23;20176;-95
2023/07/14 19:46:16;;;;;;;4.22;2.50;;;19.70;99.90;;;;;;6256072;22;20183;-96
2023/07/14 19:48:44;;;;;;;13.75;3.00;;;19.60;99.90;;;;;;6254049;23;20165;-96
2023/07/14 19:51:25;;;;;;;4.93;2.60;;;19.50;99.90;;;;;;6254887;23;20179;-94
2023/07/14 19:53:53;;;;;;;3.65;2.83;;;19.40;99.90;;;;;;6256238;23;20144;-96
2023/07/14 19:56:23;;;;;;;4.85;2.50;;;19.30;99.90;;;;;;6248844;23;20251;-95
2023/07/14 19:58:51;;;;;;;4.85;2.80;;;19.30;99.90;;;;;;6248796;22;20198;-96
2023/07/14 20:01:19;;;;;;;5.63;2.60;;;19.30;99.90;;;;;;6248979;23;20172;-94
2023/07/14 20:03:47;;;;;;;4.97;2.60;;;19.20;99.90;;;;;;6249276;23;20549;-95
2023/07/14 20:06:16;;;;;;;3.30;2.38;;;19.10;99.90;;;;;;6249325;23;20172;-95
2023/07/14 20:08:43;;;;;;;3.10;2.60;;;19.10;99.90;;;;;;6247830;23;20180;-94
2023/07/14 20:11:15;;;;;;;3.90;2.90;;;19.10;99.90;;;;;;6247439;23;20176;-95
2023/07/14 20:13:43;;;;;;;4.63;2.58;;;19.10;99.90;;;;;;6249494;23;20176;-94
2023/07/14 20:16:13;;;;;;;5.03;2.80;;;19.00;99.90;;;;;;6248697;23;20222;-96
2023/07/14 20:18:42;;;;;;;4.72;2.60;;;19.00;99.90;;;;;;6248610;23;20202;-94
2023/07/14 20:21:16;;;;;;;4.65;2.70;;;18.90;99.90;;;;;;6248635;23;20193;-95
2023/07/14 20:23:44;;;;;;;5.72;2.83;;;18.80;99.90;;;;;;6249051;23;20179;-95
2023/07/14 20:26:16;;;;;;;4.63;2.50;;;18.80;99.90;;;;;;6248894;23;20179;-93
2023/07/14 20:28:45;;;;;;;4.20;2.67;;;18.70;99.90;;;;;;6248768;22;20168;-94
2023/07/14 20:31:17;;;;;;;4.47;2.72;;;18.70;99.90;;;;;;6248249;23;20238;-95
2023/07/14 20:33:46;;;;;;;5.40;2.70;;;18.60;99.90;;;;;;6248394;23;20157;-93
2023/07/14 20:36:16;;;;;;;4.07;2.72;;;18.60;99.90;;;;;;6248750;23;20192;-95
2023/07/14 20:38:44;;;;;;;3.42;2.67;;;18.70;99.90;;;;;;6248829;23;20159;-95
2023/07/14 20:41:18;;;;;;;5.97;2.70;;;18.80;99.90;;;;;;6249145;23;20196;-96
2023/07/14 20:43:49;;;;;;;4.50;2.47;;;18.80;99.90;;;;;;6248739;23;20206;-94
2023/07/14 20:46:22;;;;;;;4.55;2.50;;;19.00;99.90;;;;;;6249788;23;20218;-93
2023/07/14 20:48:51;;;;;;;3.45;2.42;;;19.10;99.90;;;;;;6248195;23;20183;-95
2023/07/14 20:51:19;;;;;;;2.72;2.40;;;19.10;99.90;;;;;;6247807;23;20169;-94
2023/07/14 20:53:47;;;;;;;4.38;3.08;;;19.20;99.90;;;;;;6248297;23;20172;-95
2023/07/14 20:56:18;;;;;;;3.55;2.78;;;19.20;99.90;;;;;;6248382;23;20172;-93
2023/07/14 20:58:46;;;;;;;3.72;2.47;;;19.20;99.90;;;;;;6248039;23;20239;-95
2023/07/14 21:01:16;;;;;;;3.28;2.60;;;19.10;99.90;;;;;;6247668;23;20188;-94
2023/07/14 21:03:45;;;;;;;4.18;2.50;;;19.10;99.90;;;;;;6248622;23;20230;-94
2023/07/14 21:06:18;;;;;;;3.88;2.65;;;19.10;99.90;;;;;;6248303;23;20191;-95
2023/07/14 21:08:45;;;;;;;3.80;2.72;;;19.00;99.90;;;;;;6248888;23;20154;-95
2023/07/14 21:11:15;;;;;;;5.30;2.72;;;19.00;99.90;;;;;;6248656;23;20168;-94
2023/07/14 21:13:46;;;;;;;3.85;2.72;;;19.00;99.90;;;;;;6248565;23;20172;-94
2023/07/14 21:16:14;;;;;;;5.13;2.65;;;18.90;99.90;;;;;;6248157;23;20650;-94
2023/07/14 21:18:41;;;;;;;5.47;3.03;;;18.90;99.90;;;;;;6248581;23;20176;-94
2023/07/14 21:21:18;;;;;;;5.18;2.83;;;18.80;99.90;;;;;;6248537;23;20234;-94
2023/07/14 21:23:45;;;;;;;4.43;2.70;;;18.90;99.90;;;;;;6248159;23;20181;-94
2023/07/14 21:26:23;;;;;;;3.40;2.90;;;18.90;99.90;;;;;;6247776;23;20619;-94
2023/07/14 21:28:52;;;;;;;6.13;2.78;;;19.00;99.90;;;;;;6248151;23;20156;-94
2023/07/14 21:31:19;;;;;;;4.95;2.78;;;19.10;99.90;;;;;;6248210;23;20234;-94
2023/07/14 21:33:47;;;;;;;3.30;2.50;;;19.20;99.90;;;;;;6247818;23;20222;-95
2023/07/14 21:36:19;;;;;;;4.45;2.83;;;19.30;99.90;;;;;;6248048;23;20192;-94
2023/07/14 21:38:46;;;;;;;3.17;2.88;;;19.30;99.90;;;;;;6248461;23;20156;-96
2023/07/14 21:41:13;;;;;;;4.57;2.70;;;19.40;99.90;;;;;;6248168;23;20188;-94
2023/07/14 21:43:44;;;;;;;4.75;2.80;;;19.30;99.90;;;;;;6247672;23;20483;-94
2023/07/14 21:46:14;;;;;;;5.28;2.92;;;19.30;99.90;;;;;;6247982;23;20153;-94
2023/07/14 21:48:41;;;;;;;4.65;2.70;;;19.20;99.90;;;;;;6247830;23;20210;-94
2023/07/14 21:51:15;;;;;;;7.25;2.60;;;19.20;99.90;;;;;;6247938;23;20176;-95
2023/07/14 21:53:47;;;;;;;3.70;2.50;;;19.20;99.90;;;;;;6248083;23;20264;-95
2023/07/14 21:56:14;;;;;;;3.30;2.53;;;19.30;99.90;;;;;;6247860;23;20667;-93
2023/07/14 21:58:42;;;;;;;3.80;2.60;;;19.30;99.90;;;;;;6247690;23;20169;-96
2023/07/14 22:01:21;;;;;;;3.47;2.45;;;19.30;99.90;;;;;;6247715;23;20238;-95
2023/07/14 22:03:48;;;;;;;5.55;3.25;;;19.30;99.90;;;;;;6248471;23;20152;-94
2023/07/14 22:06:16;;;;;;;4.78;3.05;;;19.30;99.90;;;;;;6248433;23;20168;-95
2023/07/14 22:08:45;;;;;;;4.22;2.75;;;19.30;99.90;;;;;;6248552;23;20226;-96
2023/07/14 22:11:14;;;;;;;4.47;2.47;;;19.30;99.90;;;;;;6248623;23;20168;-95
2023/07/14 22:13:42;;;;;;;3.47;2.55;;;19.30;99.90;;;;;;6247967;23;20179;-96
2023/07/14 22:16:14;;;;;;;3.70;2.78;;;19.30;99.90;;;;;;6247420;23;20164;-95
2023/07/14 22:18:43;;;;;;;4.85;2.88;;;19.30;99.90;;;;;;6247059;23;20168;-94
2023/07/14 22:21:14;;;;;;;4.13;2.88;;;19.20;99.90;;;;;;6247936;23;20654;-95
2023/07/14 22:23:41;;;;;;;3.40;2.60;;;19.20;99.90;;;;;;6247119;23;20818;-94
2023/07/14 22:26:13;;;;;;;4.13;2.63;;;19.20;99.90;;;;;;6247076;23;20172;-94
2023/07/14 22:28:41;;;;;;;5.80;2.78;;;19.20;99.90;;;;;;6247458;23;20159;-94